Time;durP1;ratioP1;P1;durP2;ratioP2;P2;SDS_P1;SDS_P2;PMS_P1;PMS_P2;Temp;Humidity;BMP_temperature;BMP_pressure;BME280_temperature;BME280_humidity;BME280_pressure;Samples;Min_cycle;Max_cycle;Signal;HPM_P1;HPM_P2
2022/05/21 00:01:19;;;;;;;0.20;0.20;;;17.30;99.90;;;;;;4407306;32;20093;-70
2022/05/21 00:03:45;;;;;;;0.20;0.20;;;17.20;99.90;;;;;;4422571;32;20513;-69
2022/05/21 00:06:11;;;;;;;0.30;0.30;;;17.20;99.90;;;;;;4425579;32;20076;-69
2022/05/21 00:08:36;;;;;;;0.22;0.22;;;17.20;99.90;;;;;;4425469;32;20074;-69
2022/05/21 00:11:03;;;;;;;0.20;0.20;;;17.20;99.90;;;;;;4425956;32;20126;-70
2022/05/21 00:13:28;;;;;;;0.45;0.43;;;17.20;99.90;;;;;;4426636;32;20124;-69
2022/05/21 00:15:53;;;;;;;0.32;0.32;;;17.20;99.90;;;;;;4425633;32;20120;-70
2022/05/21 00:18:19;;;;;;;0.20;0.20;;;17.10;99.90;;;;;;4424731;32;20086;-69
2022/05/21 00:20:48;;;;;;;0.20;0.20;;;17.20;99.90;;;;;;4425953;32;20053;-69
2022/05/21 00:23:21;;;;;;;0.30;0.30;;;17.10;99.90;;;;;;4424150;32;20089;-69
2022/05/21 00:25:49;;;;;;;0.25;0.25;;;17.10;99.90;;;;;;4424588;32;20061;-69
2022/05/21 00:28:16;;;;;;;0.20;0.20;;;17.10;99.90;;;;;;4413594;32;20085;-70
2022/05/21 00:30:42;;;;;;;0.35;0.35;;;17.10;99.90;;;;;;4406294;32;20537;-69
2022/05/21 00:33:08;;;;;;;0.37;0.37;;;17.00;99.90;;;;;;4425361;32;20061;-69
2022/05/21 00:35:34;;;;;;;0.22;0.22;;;17.00;99.90;;;;;;4427410;32;20406;-69
2022/05/21 00:38:00;;;;;;;0.20;0.20;;;17.00;99.90;;;;;;4423660;32;20490;-69
2022/05/21 00:40:27;;;;;;;0.30;0.30;;;17.00;99.90;;;;;;4425057;32;20057;-69
2022/05/21 00:42:53;;;;;;;0.30;0.30;;;17.10;99.90;;;;;;4425943;32;20092;-69
2022/05/21 00:45:19;;;;;;;0.20;0.20;;;17.00;99.90;;;;;;4423790;32;20062;-69
2022/05/21 00:47:44;;;;;;;0.37;0.37;;;17.00;99.90;;;;;;4425237;32;20069;-69
2022/05/21 00:50:14;;;;;;;0.20;0.20;;;16.90;99.90;;;;;;4427103;32;20056;-69
2022/05/21 00:52:41;;;;;;;7.30;1.58;;;16.80;99.90;;;;;;4423409;32;20061;-69
2022/05/21 00:55:13;;;;;;;0.20;0.20;;;16.80;99.90;;;;;;4428045;32;20065;-69
2022/05/21 00:57:45;;;;;;;0.30;0.30;;;16.70;99.90;;;;;;4419628;32;20108;-69
2022/05/21 01:00:18;;;;;;;1.05;0.28;;;16.60;99.90;;;;;;4407309;32;20065;-70
2022/05/21 01:02:50;;;;;;;0.20;0.20;;;16.60;99.90;;;;;;4424627;32;20069;-70
2022/05/21 01:05:20;;;;;;;2.85;0.75;;;16.70;99.90;;;;;;4426646;32;20058;-69
2022/05/21 01:07:46;;;;;;;0.20;0.20;;;16.80;99.90;;;;;;4422861;32;20520;-70
2022/05/21 01:10:16;;;;;;;0.20;0.20;;;16.80;99.90;;;;;;4425667;32;20473;-70
2022/05/21 01:12:47;;;;;;;0.30;0.30;;;16.80;99.90;;;;;;4413208;32;20066;-70
2022/05/21 01:15:18;;;;;;;0.20;0.20;;;16.70;99.90;;;;;;4425623;32;20053;-70
2022/05/21 01:17:45;;;;;;;0.20;0.20;;;16.60;99.90;;;;;;4426301;32;20045;-70
2022/05/21 01:20:15;;;;;;;0.30;0.30;;;16.60;99.90;;;;;;4427307;32;20419;-70
2022/05/21 01:22:46;;;;;;;0.30;0.30;;;16.60;99.90;;;;;;4421818;32;20136;-70
2022/05/21 01:25:14;;;;;;;0.25;0.25;;;16.50;99.90;;;;;;4424094;32;20081;-69
2022/05/21 01:27:41;;;;;;;0.28;0.28;;;16.30;99.90;;;;;;4418563;32;20093;-70
2022/05/21 01:30:10;;;;;;;0.20;0.20;;;16.10;99.90;;;;;;4403460;32;20609;-70
2022/05/21 01:32:36;;;;;;;0.30;0.30;;;16.00;99.90;;;;;;4421913;32;20196;-70
2022/05/21 01:35:03;;;;;;;0.35;0.22;;;15.80;99.90;;;;;;4423834;32;20070;-70
2022/05/21 01:37:29;;;;;;;0.55;0.50;;;15.60;99.90;;;;;;4425187;32;20085;-70
2022/05/21 01:39:54;;;;;;;0.98;0.82;;;15.50;99.90;;;;;;4425961;32;20137;-70
2022/05/21 01:42:20;;;;;;;0.35;0.35;;;15.50;99.90;;;;;;4426855;32;20085;-69
2022/05/21 01:44:52;;;;;;;2.30;0.40;;;15.50;99.90;;;;;;4426298;32;20046;-70
2022/05/21 01:47:18;;;;;;;0.20;0.20;;;15.40;99.90;;;;;;4427649;32;20441;-70
2022/05/21 01:49:43;;;;;;;0.57;0.57;;;15.50;99.90;;;;;;4427448;32;20047;-70
2022/05/21 01:52:10;;;;;;;0.25;0.25;;;15.40;99.90;;;;;;4425797;32;20120;-70
2022/05/21 01:54:36;;;;;;;0.30;0.30;;;15.40;99.90;;;;;;4427228;32;20441;-70
2022/05/21 01:57:04;;;;;;;0.30;0.30;;;15.40;99.90;;;;;;4425944;32;20131;-70
2022/05/21 01:59:30;;;;;;;0.25;0.25;;;15.40;99.90;;;;;;4406099;32;20521;-70
2022/05/21 02:01:55;;;;;;;0.20;0.20;;;15.40;99.90;;;;;;4413734;32;20131;-70
2022/05/21 02:04:21;;;;;;;0.60;0.60;;;15.40;99.90;;;;;;4425932;32;20410;-70
2022/05/21 02:06:48;;;;;;;0.20;0.20;;;15.40;99.90;;;;;;4424023;32;20094;-70
2022/05/21 02:09:14;;;;;;;0.30;0.30;;;15.30;99.90;;;;;;4427758;32;20042;-70
2022/05/21 02:11:40;;;;;;;0.30;0.30;;;15.30;99.90;;;;;;4425023;32;20085;-70
2022/05/21 02:14:07;;;;;;;0.17;0.17;;;15.20;99.90;;;;;;4427070;32;20078;-70
2022/05/21 02:16:34;;;;;;;0.30;0.30;;;15.20;99.90;;;;;;4429908;32;20458;-69
2022/05/21 02:19:01;;;;;;;0.20;0.20;;;15.10;99.90;;;;;;4428761;32;20120;-69
2022/05/21 02:21:28;;;;;;;0.47;0.47;;;15.10;99.90;;;;;;4424985;32;20083;-69
2022/05/21 02:23:54;;;;;;;0.90;0.50;;;15.10;99.90;;;;;;4424716;32;20066;-70
2022/05/21 02:26:20;;;;;;;0.30;0.30;;;15.00;99.90;;;;;;4426993;32;20109;-70
2022/05/21 02:28:45;;;;;;;0.30;0.30;;;15.00;99.90;;;;;;4408997;32;20058;-69
2022/05/21 02:31:11;;;;;;;0.30;0.30;;;14.90;99.90;;;;;;4405684;32;20065;-69
2022/05/21 02:33:36;;;;;;;0.20;0.20;;;14.90;99.90;;;;;;4425088;32;20065;-69
2022/05/21 02:36:02;;;;;;;2.55;1.40;;;14.80;99.90;;;;;;4426057;32;20442;-70
2022/05/21 02:39:30;;;;;;;0.43;0.43;;;14.80;99.90;;;;;;4427081;32;20054;-70
2022/05/21 02:41:14;;;;;;;0.30;0.30;;;14.80;99.90;;;;;;4411297;32;20097;-70
2022/05/21 02:43:40;;;;;;;0.25;0.25;;;14.80;99.90;;;;;;4426796;32;20062;-69
2022/05/21 02:46:06;;;;;;;0.20;0.20;;;14.80;99.90;;;;;;4426579;32;20061;-68
2022/05/21 02:48:32;;;;;;;1.75;1.15;;;14.90;99.90;;;;;;4426817;32;20118;-68
2022/05/21 02:50:57;;;;;;;0.30;0.30;;;15.00;99.90;;;;;;4427061;32;20090;-69
2022/05/21 02:53:23;;;;;;;0.30;0.30;;;14.90;99.90;;;;;;4426355;32;20077;-69
2022/05/21 02:55:51;;;;;;;0.52;0.52;;;14.90;99.90;;;;;;4428604;32;21441;-69
2022/05/21 02:58:17;;;;;;;0.20;0.20;;;14.90;99.90;;;;;;4417199;32;20144;-69
2022/05/21 03:00:44;;;;;;;0.45;0.45;;;14.80;99.90;;;;;;4406279;32;20074;-69
2022/05/21 03:03:09;;;;;;;0.40;0.40;;;14.80;99.90;;;;;;4424108;32;20093;-69
2022/05/21 03:05:35;;;;;;;0.37;0.37;;;14.90;99.90;;;;;;4429305;32;20065;-69
2022/05/21 03:10:20;;;;;;;40.08;1.37;;;14.90;99.90;;;;;;4425202;32;20528;-69
2022/05/21 03:10:46;;;;;;;0.30;0.30;;;14.80;99.90;;;;;;4414277;32;20488;-69
2022/05/21 03:13:11;;;;;;;0.47;0.47;;;14.70;99.90;;;;;;4428617;32;20065;-69
2022/05/21 03:15:39;;;;;;;0.20;0.20;;;14.80;99.90;;;;;;4428770;32;20098;-69
2022/05/21 03:18:07;;;;;;;0.30;0.30;;;14.80;99.90;;;;;;4426795;32;20459;-69
2022/05/21 03:20:33;;;;;;;0.20;0.20;;;14.60;99.90;;;;;;4427904;32;20061;-69
2022/05/21 03:22:59;;;;;;;0.20;0.20;;;14.70;99.90;;;;;;4424091;32;20078;-69
2022/05/21 03:25:24;;;;;;;0.30;0.30;;;14.70;99.90;;;;;;4425769;32;20176;-69
2022/05/21 03:27:51;;;;;;;0.32;0.32;;;14.70;99.90;;;;;;4419741;32;20074;-69
2022/05/21 03:30:19;;;;;;;0.30;0.30;;;14.70;99.90;;;;;;4407220;32;20074;-70
2022/05/21 03:32:46;;;;;;;0.30;0.30;;;14.70;99.90;;;;;;4425945;32;20062;-70
2022/05/21 03:35:13;;;;;;;0.20;0.20;;;14.70;99.90;;;;;;4426402;32;20135;-70
2022/05/21 03:37:39;;;;;;;0.22;0.22;;;14.70;99.90;;;;;;4424585;32;20066;-69
2022/05/21 03:40:08;;;;;;;0.20;0.20;;;14.60;99.90;;;;;;4425575;32;20069;-70
2022/05/21 03:42:34;;;;;;;0.20;0.20;;;14.60;99.90;;;;;;4425133;32;20069;-70
2022/05/21 03:45:00;;;;;;;0.32;0.32;;;14.60;99.90;;;;;;4427401;32;20081;-71
2022/05/21 03:47:26;;;;;;;0.20;0.20;;;14.60;99.90;;;;;;4426027;32;20066;-69
2022/05/21 03:49:52;;;;;;;1.02;1.00;;;14.60;99.90;;;;;;4426345;32;20148;-69
2022/05/21 03:52:17;;;;;;;0.10;0.10;;;14.60;99.90;;;;;;4425971;32;20077;-70
2022/05/21 03:54:42;;;;;;;0.10;0.10;;;14.60;99.90;;;;;;4426148;32;20097;-69
2022/05/21 03:57:10;;;;;;;0.30;0.30;;;14.70;99.90;;;;;;4423224;32;20069;-70
2022/05/21 03:59:36;;;;;;;0.93;0.85;;;14.70;99.90;;;;;;4405974;32;20093;-69
2022/05/21 04:02:02;;;;;;;0.30;0.30;;;14.70;99.90;;;;;;4415180;32;20093;-70
2022/05/21 04:04:28;;;;;;;0.30;0.30;;;14.70;99.90;;;;;;4426477;32;20124;-69
2022/05/21 04:06:53;;;;;;;0.20;0.20;;;14.80;99.90;;;;;;4424467;32;20069;-70
2022/05/21 04:09:19;;;;;;;0.40;0.40;;;14.80;99.90;;;;;;4425736;32;20124;-70
2022/05/21 04:11:44;;;;;;;0.50;0.50;;;14.70;99.90;;;;;;4428140;32;20081;-69
2022/05/21 04:14:12;;;;;;;0.40;0.40;;;14.70;99.90;;;;;;4427229;32;20592;-69
2022/05/21 04:16:38;;;;;;;0.22;0.22;;;14.70;99.90;;;;;;4427297;32;20088;-69
2022/05/21 04:19:04;;;;;;;0.43;0.43;;;14.50;99.90;;;;;;4413974;32;20241;-70
2022/05/21 04:21:29;;;;;;;0.40;0.40;;;14.50;99.90;;;;;;4426388;32;20069;-72
2022/05/21 04:23:55;;;;;;;0.32;0.32;;;14.40;99.90;;;;;;4424112;32;20162;-70
2022/05/21 04:26:21;;;;;;;0.30;0.30;;;14.40;99.90;;;;;;4426139;32;20070;-68
2022/05/21 04:28:46;;;;;;;0.35;0.35;;;14.40;99.90;;;;;;4410627;32;20069;-69
2022/05/21 04:31:12;;;;;;;0.28;0.28;;;14.30;99.90;;;;;;4404046;32;20576;-69
2022/05/21 04:33:37;;;;;;;0.20;0.20;;;14.30;99.90;;;;;;4424618;32;20101;-69
2022/05/21 04:36:18;;;;;;;0.20;0.20;;;14.20;99.90;;;;;;4421642;32;20061;-68
2022/05/21 04:38:45;;;;;;;;;;;14.20;99.90;;;;;;4425562;32;20098;-68
2022/05/21 04:41:10;;;;;;;0.20;0.20;;;14.10;99.90;;;;;;4427173;32;19979;-68
2022/05/21 04:43:36;;;;;;;0.20;0.20;;;14.00;99.90;;;;;;4426224;32;20097;-69
2022/05/21 04:46:02;;;;;;;1.77;0.75;;;14.00;99.90;;;;;;4427416;32;20410;-69
2022/05/21 04:48:28;;;;;;;0.30;0.30;;;14.00;99.90;;;;;;4426589;32;20086;-69
2022/05/21 04:50:59;;;;;;;0.30;0.30;;;14.00;99.90;;;;;;4426780;32;20066;-69
2022/05/21 04:53:25;;;;;;;0.40;0.40;;;13.90;99.90;;;;;;4423083;32;20089;-69
2022/05/21 04:55:50;;;;;;;0.35;0.35;;;14.00;99.90;;;;;;4425971;32;20132;-69
2022/05/21 04:58:15;;;;;;;0.50;0.50;;;14.00;99.90;;;;;;4416464;32;20081;-69
2022/05/21 05:00:41;;;;;;;1.62;0.40;;;14.10;99.90;;;;;;4405820;32;20065;-69
2022/05/21 05:03:11;;;;;;;0.20;0.20;;;14.20;99.90;;;;;;4423184;32;20066;-69
2022/05/21 05:05:39;;;;;;;0.35;0.35;;;14.20;99.90;;;;;;4425345;32;20072;-69
2022/05/21 05:08:04;;;;;;;0.50;0.50;;;14.20;99.90;;;;;;4424774;32;20072;-69
2022/05/21 05:10:30;;;;;;;0.30;0.30;;;14.20;99.90;;;;;;4423920;32;20077;-69
2022/05/21 05:12:55;;;;;;;0.30;0.30;;;14.30;99.90;;;;;;4427022;32;20094;-69
2022/05/21 05:15:21;;;;;;;0.40;0.40;;;14.20;99.90;;;;;;4425206;32;20093;-69
2022/05/21 05:17:46;;;;;;;0.30;0.30;;;14.20;99.90;;;;;;4427637;32;20069;-69
2022/05/21 05:20:12;;;;;;;0.20;0.20;;;14.10;99.90;;;;;;4425506;32;20545;-69
2022/05/21 05:22:37;;;;;;;0.30;0.30;;;14.10;99.90;;;;;;4424919;32;20193;-68
2022/05/21 05:25:04;;;;;;;0.40;0.40;;;14.00;99.90;;;;;;4424317;32;20054;-69
2022/05/21 05:27:30;;;;;;;0.30;0.30;;;14.00;99.90;;;;;;4416670;32;20100;-69
2022/05/21 05:29:55;;;;;;;0.20;0.20;;;14.00;99.90;;;;;;4405543;32;20462;-69
2022/05/21 05:32:21;;;;;;;0.40;0.40;;;13.90;99.90;;;;;;4419208;32;20065;-69
2022/05/21 05:34:46;;;;;;;0.30;0.30;;;13.90;99.90;;;;;;4426050;32;20077;-68
2022/05/21 05:37:13;;;;;;;1.30;0.50;;;13.90;99.90;;;;;;4426092;32;20488;-69
2022/05/21 05:39:38;;;;;;;0.30;0.30;;;13.80;99.90;;;;;;4424491;32;20057;-69
2022/05/21 05:42:04;;;;;;;0.32;0.32;;;14.00;99.90;;;;;;4428538;32;20139;-69
2022/05/21 05:44:31;;;;;;;0.30;0.30;;;14.10;99.90;;;;;;4425641;32;20061;-69
2022/05/21 05:46:57;;;;;;;0.20;0.20;;;14.20;99.90;;;;;;4425407;32;20093;-69
2022/05/21 05:49:22;;;;;;;0.40;0.40;;;14.30;99.90;;;;;;4424839;32;20073;-69
2022/05/21 05:51:48;;;;;;;0.30;0.30;;;14.40;99.90;;;;;;4425274;32;20120;-68
2022/05/21 05:54:13;;;;;;;0.40;0.40;;;14.40;99.90;;;;;;4424331;32;20128;-69
2022/05/21 05:56:43;;;;;;;0.20;0.20;;;14.40;99.90;;;;;;4426582;32;20061;-69
2022/05/21 06:00:10;;;;;;;3.10;0.85;;;14.50;99.90;;;;;;4407774;32;20065;-69
2022/05/21 06:02:58;;;;;;;0.20;0.20;;;14.50;99.90;;;;;;4404389;32;20150;-69
2022/05/21 06:04:41;;;;;;;0.57;0.57;;;14.60;99.90;;;;;;4411811;32;20199;-69
2022/05/21 06:07:11;;;;;;;0.40;0.40;;;14.60;99.90;;;;;;4422648;32;20058;-69
2022/05/21 06:09:36;;;;;;;0.20;0.20;;;14.50;99.90;;;;;;4410892;32;20077;-69
2022/05/21 06:12:02;;;;;;;0.25;0.25;;;14.60;99.90;;;;;;4427309;32;20069;-68
2022/05/21 06:14:27;;;;;;;1.00;0.80;;;14.60;99.90;;;;;;4425962;32;20156;-69
2022/05/21 06:16:53;;;;;;;2.35;1.42;;;14.60;99.90;;;;;;4425981;32;20078;-69
2022/05/21 06:19:19;;;;;;;0.30;0.30;;;14.50;99.90;;;;;;4425273;32;20070;-69
2022/05/21 06:21:45;;;;;;;12.52;1.92;;;14.60;99.90;;;;;;4424226;32;20073;-69
2022/05/21 06:24:10;;;;;;;0.50;0.50;;;14.60;99.90;;;;;;4426690;32;20125;-68
2022/05/21 06:26:36;;;;;;;0.50;0.50;;;14.70;99.90;;;;;;4425273;32;20092;-69
2022/05/21 06:29:01;;;;;;;0.65;0.65;;;14.60;99.90;;;;;;4411030;32;20074;-70
2022/05/21 06:31:27;;;;;;;0.62;0.62;;;14.60;99.90;;;;;;4416173;32;20479;-69
2022/05/21 06:33:52;;;;;;;0.20;0.20;;;14.60;99.90;;;;;;4426391;32;20077;-68
2022/05/21 06:36:18;;;;;;;0.20;0.20;;;14.70;99.90;;;;;;4427160;32;20127;-68
2022/05/21 06:38:44;;;;;;;4.57;1.65;;;14.80;99.90;;;;;;4425367;32;20061;-70
2022/05/21 06:41:10;;;;;;;0.30;0.30;;;14.70;99.90;;;;;;4428349;32;20069;-69
2022/05/21 06:43:36;;;;;;;0.57;0.57;;;14.60;99.90;;;;;;4427129;32;20070;-69
2022/05/21 06:46:02;;;;;;;0.40;0.40;;;14.50;99.90;;;;;;4427806;32;20454;-69
2022/05/21 06:48:27;;;;;;;0.28;0.28;;;14.50;99.90;;;;;;4429360;32;20112;-69
2022/05/21 06:50:53;;;;;;;0.30;0.30;;;14.50;99.90;;;;;;4428378;32;20053;-69
2022/05/21 06:53:19;;;;;;;0.43;0.43;;;14.40;99.90;;;;;;4426612;32;20087;-69
2022/05/21 06:55:44;;;;;;;0.55;0.55;;;14.40;99.90;;;;;;4426768;32;20065;-69
2022/05/21 06:58:11;;;;;;;1.15;1.00;;;14.30;99.90;;;;;;4415645;32;20131;-69
2022/05/21 07:00:37;;;;;;;0.40;0.40;;;14.40;99.90;;;;;;4413237;32;20524;-69
2022/05/21 07:03:02;;;;;;;0.55;0.40;;;14.30;99.90;;;;;;4423146;32;20077;-69
2022/05/21 07:07:35;;;;;;;0.30;0.30;;;14.30;99.90;;;;;;4423611;32;20065;-69
2022/05/21 07:08:24;;;;;;;0.40;0.40;;;14.50;99.90;;;;;;4413321;32;20073;-69
2022/05/21 07:10:51;;;;;;;1.30;0.45;;;14.50;99.90;;;;;;4426144;32;20443;-69
2022/05/21 07:13:18;;;;;;;0.35;0.35;;;14.60;99.90;;;;;;4427744;32;20069;-70
2022/05/21 07:15:47;;;;;;;3.53;0.52;;;14.70;99.90;;;;;;4413550;32;20066;-68
2022/05/21 07:18:17;;;;;;;0.30;0.30;;;14.80;99.90;;;;;;4427216;32;20159;-69
2022/05/21 07:20:42;;;;;;;0.40;0.40;;;14.90;99.90;;;;;;4427123;32;20444;-69
2022/05/21 07:23:08;;;;;;;0.20;0.20;;;15.00;99.90;;;;;;4424742;32;20065;-69
2022/05/21 07:25:33;;;;;;;0.50;0.50;;;15.00;99.90;;;;;;4428548;32;20065;-69
2022/05/21 07:28:00;;;;;;;0.32;0.28;;;15.20;99.90;;;;;;4419396;32;20179;-70
2022/05/21 07:30:26;;;;;;;0.52;0.52;;;15.20;99.90;;;;;;4391599;32;20580;-69
2022/05/21 07:32:55;;;;;;;0.30;0.30;;;15.10;99.90;;;;;;4422419;32;20408;-69
2022/05/21 07:35:21;;;;;;;0.30;0.30;;;15.00;99.90;;;;;;4425729;32;20084;-69
2022/05/21 07:37:47;;;;;;;0.30;0.30;;;15.00;99.90;;;;;;4421342;32;80859;-69
2022/05/21 07:40:14;;;;;;;4.07;1.25;;;15.20;99.90;;;;;;4423315;32;20137;-69
2022/05/21 07:42:40;;;;;;;0.28;0.28;;;15.40;99.90;;;;;;4425082;32;20069;-69
2022/05/21 07:45:07;;;;;;;0.30;0.30;;;15.70;99.90;;;;;;4426537;32;20127;-69
2022/05/21 07:47:34;;;;;;;0.52;0.43;;;15.80;99.90;;;;;;4423828;32;20073;-69
2022/05/21 07:49:59;;;;;;;0.22;0.22;;;15.90;99.90;;;;;;4426365;32;20438;-69
2022/05/21 07:52:27;;;;;;;0.40;0.40;;;16.00;99.90;;;;;;4425026;32;20061;-70
2022/05/21 07:54:53;;;;;;;0.30;0.30;;;16.00;99.90;;;;;;4423884;32;20509;-69
2022/05/21 07:57:19;;;;;;;0.40;0.40;;;16.10;99.90;;;;;;4425915;32;20089;-69
2022/05/21 07:59:44;;;;;;;0.57;0.57;;;16.10;99.90;;;;;;4403788;32;20065;-70
2022/05/21 08:02:13;;;;;;;0.25;0.25;;;16.30;99.90;;;;;;4403904;32;20081;-69
2022/05/21 08:04:39;;;;;;;0.47;0.47;;;16.50;99.90;;;;;;4425523;32;20476;-69
2022/05/21 08:07:04;;;;;;;0.40;0.40;;;16.50;99.90;;;;;;4426864;32;21753;-69
2022/05/21 08:09:30;;;;;;;0.35;0.35;;;16.50;99.90;;;;;;4423017;32;20093;-69
2022/05/21 08:11:55;;;;;;;0.45;0.45;;;16.70;99.90;;;;;;4427563;32;20140;-69
2022/05/21 08:14:21;;;;;;;0.60;0.60;;;16.80;99.90;;;;;;4426381;32;20069;-69
2022/05/21 08:16:48;;;;;;;0.20;0.20;;;17.00;99.90;;;;;;4412283;32;20517;-69
2022/05/21 08:19:14;;;;;;;0.80;0.60;;;17.10;99.90;;;;;;4424913;32;20431;-69
2022/05/21 08:21:39;;;;;;;0.60;0.60;;;17.50;99.90;;;;;;4425419;32;20081;-69
2022/05/21 08:29:23;;;;;;;0.40;0.40;;;17.10;99.90;;;;;;4404444;32;20058;-69
2022/05/21 08:31:48;;;;;;;0.85;0.45;;;17.00;99.90;;;;;;4416589;32;20057;-69
2022/05/21 08:34:14;;;;;;;0.30;0.30;;;17.00;99.90;;;;;;4424598;32;20089;-69
2022/05/21 08:36:39;;;;;;;0.37;0.37;;;17.30;99.90;;;;;;4424849;32;20066;-69
2022/05/21 08:39:05;;;;;;;0.30;0.30;;;17.60;99.90;;;;;;4427240;32;20073;-69
2022/05/21 08:41:33;;;;;;;0.98;0.40;;;17.70;99.90;;;;;;4425146;32;20489;-69
2022/05/21 08:44:04;;;;;;;0.20;0.20;;;17.90;99.90;;;;;;4424927;32;20073;-69
2022/05/21 08:46:47;;;;;;;0.47;0.43;;;18.00;99.90;;;;;;4424668;32;20089;-69
2022/05/21 08:49:25;;;;;;;0.28;0.28;;;17.80;99.90;;;;;;4422927;32;20097;-69
2022/05/21 08:52:01;;;;;;;0.30;0.30;;;17.60;99.90;;;;;;4424401;32;20077;-69
2022/05/21 08:54:33;;;;;;;0.32;0.32;;;17.20;99.90;;;;;;4423394;32;20086;-69
2022/05/21 08:57:02;;;;;;;0.20;0.20;;;16.90;99.90;;;;;;4425882;32;20065;-69
2022/05/21 08:59:35;;;;;;;0.20;0.20;;;16.50;99.90;;;;;;4407081;32;20613;-69
2022/05/21 09:02:01;;;;;;;0.30;0.30;;;16.30;99.90;;;;;;4414915;32;20093;-69
2022/05/21 09:04:30;;;;;;;0.30;0.30;;;16.20;99.90;;;;;;4422460;32;20124;-69
2022/05/21 09:07:00;;;;;;;0.37;0.37;;;16.00;99.90;;;;;;4423845;32;20065;-69
2022/05/21 09:09:58;;;;;;;0.70;0.70;;;15.90;99.90;;;;;;4422589;32;20089;-69
2022/05/21 09:12:35;;;;;;;0.30;0.30;;;15.90;99.90;;;;;;4411652;32;20081;-69
2022/05/21 09:15:03;;;;;;;0.40;0.40;;;15.70;99.90;;;;;;4423636;32;20192;-68
2022/05/21 09:17:29;;;;;;;2.55;0.57;;;15.50;99.90;;;;;;4425868;32;20124;-68
2022/05/21 09:19:58;;;;;;;0.20;0.20;;;15.30;99.90;;;;;;4422882;32;20196;-68
2022/05/21 09:22:25;;;;;;;0.37;0.37;;;15.20;99.90;;;;;;4423521;32;20103;-69
2022/05/21 09:24:53;;;;;;;0.60;0.60;;;15.20;99.90;;;;;;4421928;32;20093;-68
2022/05/21 09:27:42;;;;;;;0.35;0.35;;;15.20;99.90;;;;;;4420594;32;20067;-69
2022/05/21 09:30:21;;;;;;;0.65;0.50;;;15.40;99.90;;;;;;4402583;32;20100;-69
2022/05/21 09:32:52;;;;;;;0.62;0.60;;;15.60;99.90;;;;;;4419398;32;20106;-69
2022/05/21 09:35:20;;;;;;;0.52;0.52;;;15.60;99.90;;;;;;4422057;32;20544;-68
2022/05/21 09:37:46;;;;;;;0.80;0.52;;;15.40;99.90;;;;;;4422133;32;20082;-69
2022/05/21 09:40:34;;;;;;;2.95;0.73;;;15.40;99.90;;;;;;4423035;32;20085;-69
2022/05/21 09:45:24;;;;;;;0.30;0.30;;;15.40;99.90;;;;;;4412989;32;20525;-68
2022/05/21 09:46:28;;;;;;;0.30;0.30;;;15.50;99.90;;;;;;4403513;32;20113;-69
2022/05/21 09:49:11;;;;;;;3.92;0.60;;;15.70;99.90;;;;;;4424802;32;20117;-69
2022/05/21 09:51:40;;;;;;;0.37;0.37;;;16.00;99.90;;;;;;4425088;32;20082;-69
2022/05/21 09:54:20;;;;;;;1.65;0.60;;;16.00;99.90;;;;;;4422815;32;20098;-69
2022/05/21 09:56:52;;;;;;;0.43;0.43;;;16.00;99.90;;;;;;4425841;32;20567;-69
2022/05/21 09:59:20;;;;;;;0.52;0.52;;;15.90;99.90;;;;;;4407824;32;20541;-69
2022/05/21 10:01:49;;;;;;;18.00;1.02;;;15.90;99.90;;;;;;4416380;32;20101;-69
2022/05/21 10:04:24;;;;;;;0.47;0.37;;;15.90;99.90;;;;;;4424946;32;20062;-69
2022/05/21 10:07:00;;;;;;;0.40;0.40;;;15.80;99.90;;;;;;4427089;32;20544;-69
2022/05/21 10:11:10;;;;;;;0.30;0.30;;;15.90;99.90;;;;;;4423796;32;20074;-69
2022/05/21 10:12:28;;;;;;;0.52;0.52;;;16.20;99.90;;;;;;4412720;32;20090;-69
2022/05/21 10:15:17;;;;;;;0.82;0.60;;;16.40;99.90;;;;;;4426586;32;20057;-69
2022/05/21 10:17:51;;;;;;;0.43;0.43;;;16.60;99.90;;;;;;4416158;32;20069;-69
2022/05/21 10:20:26;;;;;;;2.20;0.90;;;17.00;99.90;;;;;;4428093;32;20132;-69
2022/05/21 10:23:10;;;;;;;6.47;0.95;;;17.20;99.90;;;;;;4426650;32;20094;-69
2022/05/21 10:26:04;;;;;;;0.35;0.35;;;17.10;99.90;;;;;;4412216;32;20424;-69
2022/05/21 10:29:01;;;;;;;9.40;0.52;;;17.60;99.90;;;;;;4400022;32;20098;-69
2022/05/21 10:31:50;;;;;;;0.90;0.90;;;17.90;99.90;;;;;;4409048;32;20413;-70
2022/05/21 10:34:28;;;;;;;0.50;0.50;;;17.80;99.90;;;;;;4424638;32;20081;-69
2022/05/21 10:37:15;;;;;;;4.00;1.48;;;17.50;99.90;;;;;;4426073;32;20636;-69
2022/05/21 10:40:07;;;;;;;0.40;0.40;;;17.70;99.90;;;;;;4410461;32;20108;-69
2022/05/21 10:42:55;;;;;;;0.40;0.40;;;18.20;99.90;;;;;;4425260;32;20073;-69
2022/05/21 10:45:30;;;;;;;0.40;0.40;;;18.20;99.90;;;;;;4411241;32;20105;-69
2022/05/21 10:48:15;;;;;;;0.35;0.35;;;18.30;99.90;;;;;;4423140;32;20136;-69
2022/05/21 10:50:51;;;;;;;0.28;0.28;;;18.50;99.90;;;;;;4426336;32;20093;-69
2022/05/21 10:53:57;;;;;;;3.20;0.77;;;18.80;99.90;;;;;;4425562;32;20065;-69
2022/05/21 10:56:44;;;;;;;0.32;0.32;;;19.20;99.90;;;;;;4414042;32;20513;-68
2022/05/21 10:59:38;;;;;;;3.92;0.45;;;18.80;99.90;;;;;;4405895;32;20102;-69
2022/05/21 11:02:25;;;;;;;0.30;0.30;;;18.50;99.90;;;;;;4405548;32;20066;-69
2022/05/21 11:05:01;;;;;;;0.40;0.40;;;18.00;99.90;;;;;;4423348;32;20135;-69
2022/05/21 11:07:46;;;;;;;0.50;0.50;;;17.80;99.90;;;;;;4425139;32;20070;-69
2022/05/21 11:10:35;;;;;;;0.40;0.40;;;17.90;99.90;;;;;;4424961;32;20458;-69
2022/05/21 11:13:09;;;;;;;0.40;0.40;;;18.00;99.90;;;;;;4410891;32;20089;-69
2022/05/21 11:15:56;;;;;;;0.35;0.35;;;18.70;99.90;;;;;;4410014;32;20143;-69
2022/05/21 11:18:46;;;;;;;0.30;0.30;;;18.80;99.90;;;;;;4409522;32;20069;-69
2022/05/21 11:21:21;;;;;;;0.65;0.62;;;19.00;99.90;;;;;;4411888;32;20078;-69
2022/05/21 11:23:58;;;;;;;0.40;0.40;;;18.70;99.90;;;;;;4425210;32;20072;-69
2022/05/21 11:26:36;;;;;;;0.85;0.40;;;18.40;99.90;;;;;;4411376;32;20065;-69
2022/05/21 11:29:35;;;;;;;0.40;0.40;;;18.10;99.90;;;;;;4407532;32;20114;-69
2022/05/21 11:37:25;;;;;;;0.85;0.70;;;17.90;99.90;;;;;;4414871;32;20085;-68
2022/05/21 11:37:57;;;;;;;1.25;1.08;;;17.80;99.90;;;;;;4402055;32;20548;-69
2022/05/21 11:40:51;;;;;;;0.40;0.40;;;17.80;99.90;;;;;;4424646;32;20126;-70
2022/05/21 11:43:19;;;;;;;2.17;1.25;;;17.90;99.90;;;;;;4412527;32;20057;-70
2022/05/21 11:46:04;;;;;;;0.62;0.50;;;18.00;99.90;;;;;;4425783;32;20492;-69
2022/05/21 11:48:30;;;;;;;0.80;0.70;;;18.20;99.90;;;;;;4423643;32;20078;-69
2022/05/21 11:51:18;;;;;;;0.50;0.50;;;18.10;99.90;;;;;;4423688;32;20070;-68
2022/05/21 11:53:45;;;;;;;0.60;0.60;;;18.60;99.90;;;;;;4411857;32;20508;-68
2022/05/21 11:56:12;;;;;;;0.40;0.40;;;18.70;99.90;;;;;;4422517;32;20131;-68
2022/05/21 11:58:59;;;;;;;0.80;0.40;;;18.60;99.90;;;;;;4409609;32;20144;-68
2022/05/21 12:01:45;;;;;;;0.40;0.40;;;18.30;99.90;;;;;;4393979;32;20073;-68
2022/05/21 12:04:24;;;;;;;3.72;1.85;;;18.20;99.90;;;;;;4412263;32;20493;-69
2022/05/21 12:06:50;;;;;;;0.30;0.30;;;18.20;99.90;;;;;;4424158;32;20559;-69
2022/05/21 12:09:27;;;;;;;4.12;1.65;;;18.30;99.90;;;;;;4424027;32;20065;-69
2022/05/21 12:12:16;;;;;;;0.45;0.45;;;18.30;99.90;;;;;;4427212;32;20084;-69
2022/05/21 12:15:13;;;;;;;0.65;0.45;;;18.20;99.90;;;;;;4413652;32;20073;-69
2022/05/21 12:17:57;;;;;;;0.40;0.40;;;18.10;99.90;;;;;;4414475;32;20123;-69
2022/05/21 12:20:42;;;;;;;0.28;0.28;;;18.00;99.90;;;;;;4409833;32;20112;-69
2022/05/21 12:23:31;;;;;;;1.35;0.90;;;17.80;99.90;;;;;;4408249;32;20089;-69
2022/05/21 12:26:02;;;;;;;0.22;0.22;;;17.70;99.90;;;;;;4412288;32;20136;-69
2022/05/21 12:28:34;;;;;;;0.40;0.40;;;17.60;99.90;;;;;;4411096;32;20719;-69
2022/05/21 12:31:01;;;;;;;0.30;0.30;;;17.50;99.90;;;;;;4405744;32;20105;-69
2022/05/21 12:33:38;;;;;;;2.05;1.27;;;17.40;99.90;;;;;;4423102;32;20524;-69
2022/05/21 12:36:22;;;;;;;0.30;0.30;;;17.40;99.90;;;;;;4422376;32;20070;-69
2022/05/21 12:38:48;;;;;;;0.60;0.60;;;17.30;99.90;;;;;;4422560;32;20081;-70
2022/05/21 12:41:25;;;;;;;2.70;1.27;;;17.30;99.90;;;;;;4424190;32;20460;-69
2022/05/21 12:43:53;;;;;;;0.45;0.45;;;17.40;99.90;;;;;;4426059;32;20126;-69
2022/05/21 12:46:25;;;;;;;0.50;0.50;;;17.60;99.90;;;;;;4425609;32;20072;-69
2022/05/21 12:48:53;;;;;;;0.30;0.30;;;18.00;99.90;;;;;;4425517;32;20135;-69
2022/05/21 12:51:38;;;;;;;0.28;0.28;;;18.10;99.90;;;;;;4423933;32;20064;-69
2022/05/21 12:54:07;;;;;;;0.45;0.45;;;18.10;99.90;;;;;;4408154;32;20094;-69
2022/05/21 12:56:35;;;;;;;0.45;0.45;;;18.20;99.90;;;;;;4425506;32;20143;-69
2022/05/21 12:59:06;;;;;;;0.35;0.35;;;18.20;99.90;;;;;;4391012;32;20094;-69
2022/05/21 13:01:34;;;;;;;5.47;1.15;;;18.40;99.90;;;;;;4410351;32;20469;-69
2022/05/21 13:04:00;;;;;;;0.30;0.30;;;19.30;99.90;;;;;;4423569;32;20069;-69
2022/05/21 13:06:29;;;;;;;7.07;0.47;;;19.60;99.90;;;;;;4424722;32;20106;-69
2022/05/21 13:08:55;;;;;;;0.40;0.40;;;19.30;99.90;;;;;;4422386;32;20072;-69
2022/05/21 13:11:24;;;;;;;0.30;0.30;;;19.00;99.90;;;;;;4423454;32;20566;-69
2022/05/21 13:14:00;;;;;;;0.40;0.40;;;18.60;99.90;;;;;;4423672;32;20070;-69